createdAt,value
2017-08-31T00:00:02.505Z,21
2017-08-31T00:00:30.616Z,21
2017-08-31T00:00:58.760Z,21
2017-08-31T00:01:26.849Z,21.13
2017-08-31T00:01:54.942Z,21.09
2017-08-31T00:02:23.133Z,21.08
2017-08-31T00:02:51.385Z,21.04
2017-08-31T00:03:19.588Z,20.98
2017-08-31T00:03:47.921Z,21
2017-08-31T00:04:15.921Z,21.08
2017-08-31T00:04:44.010Z,21.03
2017-08-31T00:05:12.141Z,21.04
2017-08-31T00:05:40.379Z,21.13
2017-08-31T00:06:08.613Z,21.04
2017-08-31T00:06:36.800Z,21.08
2017-08-31T00:07:04.779Z,21
2017-08-31T00:07:32.829Z,20.97
2017-08-31T00:08:00.889Z,21.03
2017-08-31T00:08:28.952Z,21.03
2017-08-31T00:08:57.263Z,21.01
2017-08-31T00:09:25.411Z,21.04
2017-08-31T00:09:53.616Z,20.98
2017-08-31T00:10:21.803Z,20.98
2017-08-31T00:10:49.878Z,20.96
2017-08-31T00:11:18.105Z,20.83
2017-08-31T00:11:46.360Z,20.9
2017-08-31T00:12:14.451Z,20.83
2017-08-31T00:12:42.574Z,20.88
2017-08-31T00:13:10.718Z,20.85
2017-08-31T00:13:38.829Z,20.86
2017-08-31T00:14:06.985Z,20.81
2017-08-31T00:14:35.179Z,20.83
2017-08-31T00:15:03.469Z,20.85
2017-08-31T00:15:31.569Z,20.79
2017-08-31T00:15:59.654Z,20.79
2017-08-31T00:16:27.790Z,20.79
2017-08-31T00:16:55.998Z,20.83
2017-08-31T00:17:24.240Z,20.76
2017-08-31T00:17:52.264Z,20.72
2017-08-31T00:18:20.534Z,20.71
2017-08-31T00:18:48.761Z,20.68
2017-08-31T00:19:16.919Z,20.66
2017-08-31T00:19:45.105Z,20.66
2017-08-31T00:20:13.364Z,20.64
2017-08-31T00:20:41.568Z,20.58
2017-08-31T00:21:09.655Z,20.6
2017-08-31T00:21:38.218Z,20.6
2017-08-31T00:22:06.743Z,20.61
2017-08-31T00:22:34.864Z,20.58
2017-08-31T00:23:03.030Z,20.58
2017-08-31T00:23:31.186Z,20.54
2017-08-31T00:23:59.418Z,20.58
2017-08-31T00:24:27.693Z,20.63
2017-08-31T00:24:55.878Z,20.56
2017-08-31T00:25:24.059Z,20.56
2017-08-31T00:25:52.258Z,20.54
2017-08-31T00:26:20.301Z,20.46
2017-08-31T00:26:48.483Z,20.44
2017-08-31T00:27:16.614Z,20.51
2017-08-31T00:27:44.792Z,20.42
2017-08-31T00:28:12.827Z,20.35
2017-08-31T00:28:41.019Z,20.38
2017-08-31T00:29:09.292Z,20.34
2017-08-31T00:29:37.384Z,20.41
2017-08-31T00:30:05.424Z,20.37
2017-08-31T00:30:33.603Z,20.35
2017-08-31T00:31:01.814Z,20.4
2017-08-31T00:31:30.039Z,20.4
2017-08-31T00:31:57.973Z,20.3
2017-08-31T00:32:26.130Z,20.34
2017-08-31T00:32:54.405Z,20.3
2017-08-31T00:33:22.541Z,20.34
2017-08-31T00:33:50.750Z,20.29
2017-08-31T00:34:18.992Z,20.3
2017-08-31T00:34:47.294Z,20.29
2017-08-31T00:35:15.528Z,20.23
2017-08-31T00:35:43.644Z,20.25
2017-08-31T00:36:11.746Z,20.22
2017-08-31T00:36:39.947Z,20.29
2017-08-31T00:37:08.185Z,20.22
2017-08-31T00:37:36.429Z,20.26
2017-08-31T00:38:04.362Z,20.2
2017-08-31T00:38:32.555Z,20.22
2017-08-31T00:39:00.759Z,20.26
2017-08-31T00:39:28.941Z,20.26
2017-08-31T00:39:57.060Z,20.27
2017-08-31T00:40:25.078Z,20.26
2017-08-31T00:40:53.208Z,20.22
2017-08-31T00:41:21.398Z,20.3
2017-08-31T00:41:49.489Z,20.25
2017-08-31T00:42:17.518Z,20.23
2017-08-31T00:42:45.721Z,20.23
2017-08-31T00:43:13.917Z,20.22
2017-08-31T00:43:41.955Z,20.18
2017-08-31T00:44:10.104Z,20.15
2017-08-31T00:44:38.349Z,20.2
2017-08-31T00:45:06.541Z,20.07
2017-08-31T00:45:34.624Z,20.1
2017-08-31T00:46:02.803Z,20.1
2017-08-31T00:46:31.033Z,20.11
2017-08-31T00:46:59.170Z,20.05
2017-08-31T00:47:27.224Z,20
2017-08-31T00:47:55.362Z,20.02
2017-08-31T00:48:23.599Z,20.04
2017-08-31T00:48:51.871Z,19.93
2017-08-31T00:49:20.094Z,19.98
2017-08-31T00:49:48.306Z,19.87
2017-08-31T00:50:16.494Z,19.9
2017-08-31T00:50:44.614Z,19.9
2017-08-31T00:51:12.668Z,19.98
2017-08-31T00:51:40.891Z,20.01
2017-08-31T00:52:09.141Z,19.98
2017-08-31T00:52:37.147Z,20.04
2017-08-31T00:53:05.358Z,20.04
2017-08-31T00:53:33.427Z,20
2017-08-31T00:54:01.630Z,19.97
2017-08-31T00:54:29.955Z,19.98
2017-08-31T00:54:57.987Z,20
2017-08-31T00:55:26.110Z,20.05
2017-08-31T00:55:54.288Z,20.02
2017-08-31T00:56:22.505Z,20.05
2017-08-31T00:56:50.755Z,19.97
2017-08-31T00:57:18.815Z,20.07
2017-08-31T00:57:47.023Z,20.07
2017-08-31T00:58:15.141Z,20.08
2017-08-31T00:58:43.382Z,20.07
2017-08-31T00:59:11.507Z,20.08
2017-08-31T00:59:39.708Z,20.05
2017-08-31T01:00:07.884Z,20.02
2017-08-31T01:00:36.006Z,20.07
2017-08-31T01:01:04.025Z,20.01
2017-08-31T01:01:32.008Z,20.01
2017-08-31T01:02:00.127Z,20.08
2017-08-31T01:02:28.213Z,20.04
2017-08-31T01:02:56.444Z,20.05
2017-08-31T01:03:24.478Z,20
2017-08-31T01:03:52.575Z,20.02
2017-08-31T01:04:20.824Z,20.02
2017-08-31T01:04:49.142Z,19.93
2017-08-31T01:05:17.138Z,19.98
2017-08-31T01:05:45.408Z,20.11
2017-08-31T01:06:13.620Z,20.11
2017-08-31T01:06:41.856Z,20.1
2017-08-31T01:07:10.011Z,19.98
2017-08-31T01:07:38.235Z,20.07
2017-08-31T01:08:06.374Z,20.04
2017-08-31T01:08:34.556Z,20.01
2017-08-31T01:09:02.782Z,19.97
2017-08-31T01:09:30.964Z,20.01
2017-08-31T01:09:59.179Z,19.9
2017-08-31T01:10:27.265Z,19.92
2017-08-31T01:10:55.388Z,19.93
2017-08-31T01:11:23.509Z,19.86
2017-08-31T01:11:51.524Z,19.89
2017-08-31T01:12:19.635Z,19.89
2017-08-31T01:12:47.836Z,19.8
2017-08-31T01:13:16.031Z,19.79
2017-08-31T01:13:44.102Z,19.85
2017-08-31T01:14:12.083Z,19.8
2017-08-31T01:14:40.228Z,19.83
2017-08-31T01:15:08.220Z,19.79
2017-08-31T01:15:36.381Z,19.86
2017-08-31T01:16:04.580Z,19.86
2017-08-31T01:16:32.800Z,19.79
2017-08-31T01:17:01.033Z,19.82
2017-08-31T01:17:29.313Z,19.8
2017-08-31T01:17:57.499Z,19.83
2017-08-31T01:18:25.604Z,19.85
2017-08-31T01:18:53.667Z,19.79
2017-08-31T01:19:21.804Z,19.8
2017-08-31T01:19:50.031Z,19.8
2017-08-31T01:20:18.022Z,19.89
2017-08-31T01:20:46.154Z,19.82
2017-08-31T01:21:14.271Z,19.74
2017-08-31T01:21:42.377Z,19.74
2017-08-31T01:22:10.511Z,19.72
2017-08-31T01:22:38.618Z,19.74
2017-08-31T01:23:06.809Z,19.74
2017-08-31T01:23:34.980Z,19.74
2017-08-31T01:24:03.189Z,19.72
2017-08-31T01:24:31.371Z,19.67
2017-08-31T01:24:59.574Z,19.65
2017-08-31T01:25:27.598Z,19.63
2017-08-31T01:25:55.753Z,19.67
2017-08-31T01:26:23.836Z,19.6
2017-08-31T01:26:51.941Z,19.63
2017-08-31T01:27:20.058Z,19.61
2017-08-31T01:27:48.267Z,19.49
2017-08-31T01:28:16.476Z,19.5
2017-08-31T01:28:44.677Z,19.52
2017-08-31T01:29:12.855Z,19.55
2017-08-31T01:29:41.110Z,19.57
2017-08-31T01:30:09.356Z,19.53
2017-08-31T01:30:37.422Z,19.49
2017-08-31T01:31:05.516Z,19.45
2017-08-31T01:31:33.680Z,19.42
2017-08-31T01:32:01.970Z,19.42
2017-08-31T01:32:30.169Z,19.34
2017-08-31T01:32:58.351Z,19.31
2017-08-31T01:33:26.552Z,19.34
2017-08-31T01:33:54.645Z,19.34
2017-08-31T01:34:22.709Z,19.35
2017-08-31T01:34:50.790Z,19.28
2017-08-31T01:35:18.811Z,19.31
2017-08-31T01:35:47.030Z,19.37
2017-08-31T01:36:15.260Z,19.35
2017-08-31T01:36:43.369Z,19.37
2017-08-31T01:37:11.416Z,19.32
2017-08-31T01:37:39.635Z,19.38
2017-08-31T01:38:07.694Z,19.31
2017-08-31T01:38:35.915Z,19.42
2017-08-31T01:39:04.034Z,19.34
2017-08-31T01:39:32.118Z,19.46
2017-08-31T01:40:00.325Z,19.45
2017-08-31T01:40:28.425Z,19.5
2017-08-31T01:40:56.365Z,19.55
2017-08-31T01:41:24.456Z,19.49
2017-08-31T01:41:52.485Z,19.53
2017-08-31T01:42:20.705Z,19.5
2017-08-31T01:42:48.926Z,19.53
2017-08-31T01:43:17.151Z,19.49
2017-08-31T01:43:45.275Z,19.42
2017-08-31T01:44:13.437Z,19.49
2017-08-31T01:44:41.526Z,19.5
2017-08-31T01:45:09.875Z,19.43
2017-08-31T01:45:38.102Z,19.43
2017-08-31T01:46:06.265Z,19.47
2017-08-31T01:46:34.566Z,19.34
2017-08-31T01:47:02.849Z,19.34
2017-08-31T01:47:30.949Z,19.31
2017-08-31T01:47:58.880Z,19.35
2017-08-31T01:48:27.049Z,19.3
2017-08-31T01:48:55.162Z,19.34
2017-08-31T01:49:23.305Z,19.3
2017-08-31T01:49:51.400Z,19.34
2017-08-31T01:50:19.671Z,19.28
2017-08-31T01:50:48.043Z,19.35
2017-08-31T01:51:16.221Z,19.31
2017-08-31T01:51:44.435Z,19.35
2017-08-31T01:52:12.575Z,19.32
2017-08-31T01:52:40.573Z,19.3
2017-08-31T01:53:08.674Z,19.35
2017-08-31T01:53:36.886Z,19.35
2017-08-31T01:54:04.890Z,19.34
2017-08-31T01:54:33.120Z,19.31
2017-08-31T01:55:01.365Z,19.23
2017-08-31T01:55:29.565Z,19.23
2017-08-31T01:55:57.547Z,19.2
2017-08-31T01:56:25.672Z,19.3
2017-08-31T01:56:53.888Z,19.32
2017-08-31T01:57:22.094Z,19.38
2017-08-31T01:57:50.305Z,19.31
2017-08-31T01:58:18.398Z,19.32
2017-08-31T01:58:46.502Z,19.31
2017-08-31T01:59:14.678Z,19.32
2017-08-31T01:59:42.765Z,19.4
2017-08-31T02:00:10.898Z,19.32
2017-08-31T02:00:39.089Z,19.37
2017-08-31T02:01:07.292Z,19.38
2017-08-31T02:01:35.511Z,19.5
2017-08-31T02:02:03.606Z,19.46
2017-08-31T02:02:31.800Z,19.49
2017-08-31T02:02:59.941Z,19.52
2017-08-31T02:03:28.127Z,19.56
2017-08-31T02:03:56.309Z,19.5
2017-08-31T02:04:24.745Z,19.52
2017-08-31T02:04:52.946Z,19.55
2017-08-31T02:05:21.294Z,19.53
2017-08-31T02:05:49.524Z,19.57
2017-08-31T02:06:17.697Z,19.52
2017-08-31T02:06:45.577Z,19.52
2017-08-31T02:07:13.677Z,19.56
2017-08-31T02:07:41.769Z,19.56
2017-08-31T02:08:09.795Z,19.56
2017-08-31T02:08:37.978Z,19.49
2017-08-31T02:09:06.080Z,19.56
2017-08-31T02:09:34.162Z,19.53
2017-08-31T02:10:02.318Z,19.47
2017-08-31T02:10:30.599Z,19.49
2017-08-31T02:10:58.721Z,19.52
2017-08-31T02:11:26.770Z,19.31
2017-08-31T02:11:54.805Z,19.34
2017-08-31T02:12:22.924Z,19.35
2017-08-31T02:12:51.156Z,19.35
2017-08-31T02:13:19.248Z,19.3
2017-08-31T02:13:47.345Z,19.28
2017-08-31T02:14:15.440Z,19.25
2017-08-31T02:14:43.554Z,19.27
2017-08-31T02:15:11.649Z,19.2
2017-08-31T02:15:39.933Z,19.15
2017-08-31T02:16:08.226Z,19.09
2017-08-31T02:16:36.469Z,19.09
2017-08-31T02:17:04.445Z,19.05
2017-08-31T02:17:32.670Z,19
2017-08-31T02:18:00.874Z,18.96
2017-08-31T02:18:29.073Z,18.97
2017-08-31T02:18:57.291Z,18.89
2017-08-31T02:19:25.514Z,18.9
2017-08-31T02:19:53.687Z,18.84
2017-08-31T02:20:21.917Z,18.84
2017-08-31T02:20:50.094Z,18.75
2017-08-31T02:21:18.094Z,18.76
2017-08-31T02:21:46.208Z,18.75
2017-08-31T02:22:14.374Z,18.76
2017-08-31T02:22:42.572Z,18.68
2017-08-31T02:23:10.737Z,18.72
2017-08-31T02:23:38.737Z,18.74
2017-08-31T02:24:06.853Z,18.74
2017-08-31T02:24:34.993Z,18.66
2017-08-31T02:25:03.208Z,18.71
2017-08-31T02:25:31.492Z,18.74
2017-08-31T02:25:59.687Z,18.74
2017-08-31T02:26:27.796Z,18.72
2017-08-31T02:26:56.009Z,18.69
2017-08-31T02:27:24.014Z,18.66
2017-08-31T02:27:52.105Z,18.65
2017-08-31T02:28:20.297Z,18.63
2017-08-31T02:28:48.379Z,18.57
2017-08-31T02:29:16.651Z,18.59
2017-08-31T02:29:44.771Z,18.53
2017-08-31T02:30:13.054Z,18.61
2017-08-31T02:30:41.287Z,18.6
2017-08-31T02:31:09.406Z,18.61
2017-08-31T02:31:37.521Z,18.6
2017-08-31T02:32:05.619Z,18.6
2017-08-31T02:32:33.675Z,18.65
2017-08-31T02:33:01.636Z,18.57
2017-08-31T02:33:29.774Z,18.66
2017-08-31T02:33:58.004Z,18.63
2017-08-31T02:34:26.080Z,18.68
2017-08-31T02:34:54.262Z,18.72
2017-08-31T02:35:22.368Z,18.79
2017-08-31T02:35:50.468Z,18.76
2017-08-31T02:36:18.560Z,18.82
2017-08-31T02:36:46.760Z,18.79
2017-08-31T02:37:14.921Z,18.9
2017-08-31T02:37:43.038Z,18.9
2017-08-31T02:38:11.121Z,18.86
2017-08-31T02:38:39.339Z,18.93
2017-08-31T02:39:07.590Z,18.9
2017-08-31T02:39:35.719Z,18.89
2017-08-31T02:40:03.945Z,18.81
2017-08-31T02:40:32.012Z,18.86
2017-08-31T02:41:00.353Z,18.78
2017-08-31T02:41:28.564Z,18.79
2017-08-31T02:41:56.749Z,18.86
2017-08-31T02:42:24.807Z,18.84
2017-08-31T02:42:52.990Z,18.82
2017-08-31T02:43:20.994Z,18.81
2017-08-31T02:43:49.087Z,18.71
2017-08-31T02:44:17.217Z,18.79
2017-08-31T02:44:45.222Z,18.69
2017-08-31T02:45:13.356Z,18.76
2017-08-31T02:45:41.590Z,18.74
2017-08-31T02:46:09.790Z,18.75
2017-08-31T02:46:37.992Z,18.76
2017-08-31T02:47:06.174Z,18.81
2017-08-31T02:47:34.287Z,18.75
2017-08-31T02:48:02.417Z,18.81
2017-08-31T02:48:30.611Z,18.86
2017-08-31T02:48:58.698Z,18.84
2017-08-31T02:49:26.679Z,18.93
2017-08-31T02:49:54.913Z,18.91
2017-08-31T02:50:22.980Z,19.02
2017-08-31T02:50:51.141Z,18.91
2017-08-31T02:51:19.273Z,18.94
2017-08-31T02:51:47.421Z,18.93
2017-08-31T02:52:15.525Z,18.99
2017-08-31T02:52:43.718Z,18.94
2017-08-31T02:53:11.906Z,18.9
2017-08-31T02:53:40.025Z,18.87
2017-08-31T02:54:08.150Z,18.9
2017-08-31T02:54:36.124Z,18.86
2017-08-31T02:55:04.049Z,18.86
2017-08-31T02:55:32.138Z,18.84
2017-08-31T02:56:00.622Z,18.91
2017-08-31T02:56:28.807Z,18.9
2017-08-31T02:56:56.998Z,18.94
2017-08-31T02:57:25.049Z,19.02
2017-08-31T02:57:53.274Z,18.96
2017-08-31T02:58:21.391Z,19.02
2017-08-31T02:58:49.542Z,18.99
2017-08-31T02:59:17.774Z,18.97
2017-08-31T02:59:45.757Z,18.99
2017-08-31T03:00:13.877Z,19.05
2017-08-31T03:00:42.027Z,19.02
2017-08-31T03:01:10.392Z,19.02
2017-08-31T03:01:38.571Z,19.15
2017-08-31T03:02:06.839Z,19.05
2017-08-31T03:02:34.954Z,19.02
2017-08-31T03:03:02.995Z,19.06
2017-08-31T03:03:31.144Z,19.02
2017-08-31T03:03:59.266Z,19.07
2017-08-31T03:04:27.375Z,19.07
2017-08-31T03:04:55.388Z,19.09
2017-08-31T03:05:23.422Z,19.09
2017-08-31T03:05:51.530Z,19.1
2017-08-31T03:06:19.773Z,19.1
2017-08-31T03:06:47.920Z,19.12
2017-08-31T03:07:16.131Z,19.1
2017-08-31T03:07:44.361Z,19.06
2017-08-31T03:08:12.556Z,19.13
2017-08-31T03:08:40.570Z,19.13
2017-08-31T03:09:08.644Z,19.16
2017-08-31T03:09:36.846Z,19.09
2017-08-31T03:10:04.949Z,19.07
2017-08-31T03:10:33.225Z,19.16
2017-08-31T03:11:01.425Z,19.15
2017-08-31T03:11:29.605Z,19
2017-08-31T03:11:57.725Z,19.05
2017-08-31T03:12:25.830Z,19.05
2017-08-31T03:12:54.035Z,19.05
2017-08-31T03:13:22.071Z,19.1
2017-08-31T03:13:50.316Z,19.15
2017-08-31T03:14:18.377Z,19.05
2017-08-31T03:14:46.491Z,19
2017-08-31T03:15:14.634Z,19.16
2017-08-31T03:15:42.863Z,19.05
2017-08-31T03:16:10.934Z,19.16
2017-08-31T03:16:39.010Z,19.09
2017-08-31T03:17:07.117Z,19.15
2017-08-31T03:17:35.162Z,19.06
2017-08-31T03:18:03.297Z,19.09
2017-08-31T03:18:31.491Z,18.99
2017-08-31T03:18:59.727Z,18.93
2017-08-31T03:19:27.903Z,18.93
2017-08-31T03:19:55.943Z,18.9
2017-08-31T03:20:24.038Z,18.94
2017-08-31T03:20:52.255Z,18.87
2017-08-31T03:21:20.532Z,18.91
2017-08-31T03:21:48.613Z,18.79
2017-08-31T03:22:16.796Z,18.78
2017-08-31T03:22:44.900Z,18.87
2017-08-31T03:23:13.108Z,18.87
2017-08-31T03:23:41.229Z,18.87
2017-08-31T03:24:09.318Z,18.86
2017-08-31T03:24:37.539Z,18.89
2017-08-31T03:25:05.698Z,18.87
2017-08-31T03:25:33.928Z,18.78
2017-08-31T03:26:02.148Z,18.82
2017-08-31T03:26:30.339Z,18.79
2017-08-31T03:26:58.431Z,18.79
2017-08-31T03:27:26.555Z,18.86
2017-08-31T03:27:54.690Z,18.79
2017-08-31T03:28:22.925Z,18.78
2017-08-31T03:28:51.015Z,18.87
2017-08-31T03:29:19.132Z,18.89
2017-08-31T03:29:47.307Z,18.86
2017-08-31T03:30:15.430Z,18.82
2017-08-31T03:30:43.512Z,18.86
2017-08-31T03:31:11.669Z,18.84
2017-08-31T03:31:39.698Z,18.86
2017-08-31T03:32:07.810Z,18.86
2017-08-31T03:32:36.048Z,18.93
2017-08-31T03:33:04.201Z,18.9
2017-08-31T03:33:32.351Z,18.93
2017-08-31T03:34:00.577Z,18.94
2017-08-31T03:34:28.775Z,18.82
2017-08-31T03:34:56.880Z,18.87
2017-08-31T03:35:25.102Z,18.9
2017-08-31T03:35:53.225Z,18.86
2017-08-31T03:36:21.247Z,18.82
2017-08-31T03:36:49.537Z,18.81
2017-08-31T03:37:17.610Z,18.86
2017-08-31T03:37:45.777Z,18.9
2017-08-31T03:38:13.893Z,18.84
2017-08-31T03:38:42.130Z,18.87
2017-08-31T03:39:10.117Z,18.79
2017-08-31T03:39:38.231Z,18.86
2017-08-31T03:40:06.318Z,18.84
2017-08-31T03:40:34.530Z,18.87
2017-08-31T03:41:02.678Z,18.81
2017-08-31T03:41:30.922Z,18.82
2017-08-31T03:41:58.937Z,18.89
2017-08-31T03:42:26.980Z,18.78
2017-08-31T03:42:55.083Z,18.82
2017-08-31T03:43:23.204Z,18.75
2017-08-31T03:43:51.461Z,18.81
2017-08-31T03:44:19.471Z,18.76
2017-08-31T03:44:47.535Z,18.74
2017-08-31T03:45:15.623Z,18.78
2017-08-31T03:45:43.710Z,18.74
2017-08-31T03:46:11.956Z,18.79
2017-08-31T03:46:40.144Z,18.74
2017-08-31T03:47:08.340Z,18.69
2017-08-31T03:47:36.424Z,18.72
2017-08-31T03:48:04.604Z,18.71
2017-08-31T03:48:32.766Z,18.71
2017-08-31T03:49:00.902Z,18.74
2017-08-31T03:49:28.908Z,18.69
2017-08-31T03:49:57.124Z,18.68
2017-08-31T03:50:25.357Z,18.68
2017-08-31T03:50:53.478Z,18.78
2017-08-31T03:51:21.628Z,18.75
2017-08-31T03:51:49.953Z,18.72
2017-08-31T03:52:18.074Z,18.71
2017-08-31T03:52:46.154Z,18.69
2017-08-31T03:53:14.382Z,18.71
2017-08-31T03:53:42.516Z,18.71
2017-08-31T03:54:10.699Z,18.71
2017-08-31T03:54:38.698Z,18.69
2017-08-31T03:55:06.950Z,18.68
2017-08-31T03:55:35.047Z,18.69
2017-08-31T03:56:03.198Z,18.72
2017-08-31T03:56:31.389Z,18.61
2017-08-31T03:56:59.672Z,18.66
2017-08-31T03:57:27.865Z,18.69
2017-08-31T03:57:55.946Z,18.68
2017-08-31T03:58:24.048Z,18.69
2017-08-31T03:58:52.276Z,18.6
2017-08-31T03:59:20.509Z,18.65
2017-08-31T03:59:48.747Z,18.71
2017-08-31T04:00:16.759Z,18.72
2017-08-31T04:00:44.957Z,18.72
2017-08-31T04:01:13.089Z,18.74
2017-08-31T04:01:41.111Z,18.68
2017-08-31T04:02:09.410Z,18.69
2017-08-31T04:02:37.505Z,18.71
2017-08-31T04:03:05.601Z,18.75
2017-08-31T04:03:33.801Z,18.74
2017-08-31T04:04:01.933Z,18.69
2017-08-31T04:04:30.171Z,18.75
2017-08-31T04:04:58.370Z,18.72
2017-08-31T04:05:26.575Z,18.75
2017-08-31T04:05:54.815Z,18.71
2017-08-31T04:06:23.036Z,18.72
2017-08-31T04:06:51.359Z,18.71
2017-08-31T04:07:19.477Z,18.71
2017-08-31T04:07:47.747Z,18.71
2017-08-31T04:08:15.837Z,18.69
2017-08-31T04:08:44.083Z,18.71
2017-08-31T04:09:12.219Z,18.74
2017-08-31T04:09:40.348Z,18.69
2017-08-31T04:10:08.531Z,18.71
2017-08-31T04:10:36.711Z,18.71
2017-08-31T04:11:04.813Z,18.71
2017-08-31T04:11:32.911Z,18.72
2017-08-31T04:12:01.040Z,18.69
2017-08-31T04:12:29.080Z,18.76
2017-08-31T04:12:57.325Z,18.74
2017-08-31T04:13:25.571Z,18.72
2017-08-31T04:13:53.677Z,18.71
2017-08-31T04:14:21.985Z,18.76
2017-08-31T04:14:50.192Z,18.72
2017-08-31T04:15:18.460Z,18.69
2017-08-31T04:15:46.570Z,18.69
2017-08-31T04:16:14.844Z,18.71
2017-08-31T04:16:42.874Z,18.75
2017-08-31T04:17:11.220Z,18.71
2017-08-31T04:17:39.309Z,18.69
2017-08-31T04:18:07.424Z,18.74
2017-08-31T04:18:35.597Z,18.68
2017-08-31T04:19:03.647Z,18.72
2017-08-31T04:19:31.783Z,18.68
2017-08-31T04:19:59.912Z,18.71
2017-08-31T04:20:27.991Z,18.63
2017-08-31T04:20:56.086Z,18.68
2017-08-31T04:21:24.269Z,18.68
2017-08-31T04:21:52.417Z,18.69
2017-08-31T04:22:20.801Z,18.63
2017-08-31T04:22:48.903Z,18.74
2017-08-31T04:23:17.079Z,18.71
2017-08-31T04:23:45.173Z,18.71
2017-08-31T04:24:13.226Z,18.72
2017-08-31T04:24:41.216Z,18.69
2017-08-31T04:25:09.309Z,18.72
2017-08-31T04:25:37.538Z,18.65
2017-08-31T04:26:05.537Z,18.69
2017-08-31T04:26:33.743Z,18.74
2017-08-31T04:27:01.968Z,18.76
2017-08-31T04:27:30.093Z,18.68
2017-08-31T04:27:58.240Z,18.71
2017-08-31T04:28:26.452Z,18.69
2017-08-31T04:28:54.546Z,18.75
2017-08-31T04:29:22.693Z,18.75
2017-08-31T04:29:50.894Z,18.76
2017-08-31T04:30:19.114Z,18.76
2017-08-31T04:30:47.412Z,18.78
2017-08-31T04:31:15.495Z,18.79
2017-08-31T04:31:43.649Z,18.75
2017-08-31T04:32:11.873Z,18.75
2017-08-31T04:32:40.035Z,18.76
2017-08-31T04:33:08.054Z,18.74
2017-08-31T04:33:36.316Z,18.69
2017-08-31T04:34:04.529Z,18.75
2017-08-31T04:34:32.745Z,18.72
2017-08-31T04:35:00.973Z,18.75
2017-08-31T04:35:28.969Z,18.71
2017-08-31T04:35:57.060Z,18.74
2017-08-31T04:36:25.245Z,18.72
2017-08-31T04:36:53.354Z,18.71
2017-08-31T04:37:21.550Z,18.71
2017-08-31T04:37:49.596Z,18.78
2017-08-31T04:38:17.613Z,18.69
2017-08-31T04:38:45.709Z,18.72
2017-08-31T04:39:13.884Z,18.68
2017-08-31T04:39:42.085Z,18.71
2017-08-31T04:40:10.067Z,18.69
2017-08-31T04:40:38.196Z,18.71
2017-08-31T04:41:06.388Z,18.71
2017-08-31T04:41:34.520Z,18.71
2017-08-31T04:42:02.635Z,18.74
2017-08-31T04:42:30.783Z,18.65
2017-08-31T04:42:58.939Z,18.63
2017-08-31T04:43:27.149Z,18.61
2017-08-31T04:43:55.329Z,18.61
2017-08-31T04:44:23.505Z,18.61
2017-08-31T04:44:51.692Z,18.59
2017-08-31T04:45:19.894Z,18.49
2017-08-31T04:45:48.001Z,18.47
2017-08-31T04:46:16.151Z,18.51
2017-08-31T04:46:44.269Z,18.42
2017-08-31T04:47:12.251Z,18.49
2017-08-31T04:47:40.432Z,18.45
2017-08-31T04:48:08.647Z,18.49
2017-08-31T04:48:36.688Z,18.5
2017-08-31T04:49:04.872Z,18.47
2017-08-31T04:49:32.817Z,18.49
2017-08-31T04:50:01.000Z,18.54
2017-08-31T04:50:29.110Z,18.6
2017-08-31T04:50:57.222Z,18.59
2017-08-31T04:51:25.403Z,18.53
2017-08-31T04:51:53.562Z,18.51
2017-08-31T04:52:21.652Z,18.5
2017-08-31T04:52:49.924Z,18.5
2017-08-31T04:53:17.961Z,18.5
2017-08-31T04:53:46.048Z,18.47
2017-08-31T04:54:14.171Z,18.47
2017-08-31T04:54:42.118Z,18.49
2017-08-31T04:55:10.249Z,18.54
2017-08-31T04:55:38.476Z,18.49
2017-08-31T04:56:06.702Z,18.49
2017-08-31T04:56:34.886Z,18.39
2017-08-31T04:57:03.122Z,18.34
2017-08-31T04:57:31.378Z,18.38
2017-08-31T04:57:59.577Z,18.44
2017-08-31T04:58:27.493Z,18.38
2017-08-31T04:58:55.662Z,18.32
2017-08-31T04:59:23.769Z,18.27
2017-08-31T04:59:51.879Z,18.29
2017-08-31T05:00:20.089Z,18.34
2017-08-31T05:00:48.311Z,18.29
2017-08-31T05:01:16.546Z,18.31
2017-08-31T05:01:44.605Z,18.26
2017-08-31T05:02:12.741Z,18.26
2017-08-31T05:02:40.939Z,18.26
2017-08-31T05:03:08.979Z,18.24
2017-08-31T05:03:37.219Z,18.21
2017-08-31T05:04:05.429Z,18.23
2017-08-31T05:04:33.647Z,18.1
2017-08-31T05:05:01.882Z,18.13
2017-08-31T05:05:30.009Z,18.23
2017-08-31T05:05:58.181Z,18.13
2017-08-31T05:06:26.176Z,18.13
2017-08-31T05:06:54.273Z,18.14
2017-08-31T05:07:22.496Z,18.13
2017-08-31T05:07:50.557Z,18.14
2017-08-31T05:08:18.720Z,18.1
2017-08-31T05:08:46.918Z,18.06
2017-08-31T05:09:15.007Z,18.02
2017-08-31T05:09:43.215Z,18.1
2017-08-31T05:10:11.411Z,17.99
2017-08-31T05:10:39.612Z,18.06
2017-08-31T05:11:07.854Z,18.05
2017-08-31T05:11:36.093Z,17.98
2017-08-31T05:12:04.224Z,18.06
2017-08-31T05:12:32.432Z,18.05
2017-08-31T05:13:00.735Z,17.98
2017-08-31T05:13:28.972Z,17.94
2017-08-31T05:13:57.015Z,17.88
2017-08-31T05:14:25.108Z,17.84
2017-08-31T05:14:53.198Z,17.96
2017-08-31T05:15:21.266Z,17.92
2017-08-31T05:15:49.486Z,17.87
2017-08-31T05:16:17.632Z,17.88
2017-08-31T05:16:45.805Z,17.9
2017-08-31T05:17:13.979Z,17.86
2017-08-31T05:17:42.175Z,17.92
2017-08-31T05:18:10.291Z,17.9
2017-08-31T05:18:38.502Z,17.87
2017-08-31T05:19:06.606Z,18.02
2017-08-31T05:19:34.794Z,18.01
2017-08-31T05:20:02.891Z,17.95
2017-08-31T05:20:31.097Z,17.92
2017-08-31T05:20:59.316Z,18.02
2017-08-31T05:21:27.490Z,17.98
2017-08-31T05:21:55.555Z,18.06
2017-08-31T05:22:23.565Z,18.01
2017-08-31T05:22:51.668Z,17.96
2017-08-31T05:23:19.891Z,17.98
2017-08-31T05:23:47.995Z,17.99
2017-08-31T05:24:16.189Z,18.02
2017-08-31T05:24:44.400Z,18.06
2017-08-31T05:25:12.631Z,18.11
2017-08-31T05:25:40.627Z,18.13
2017-08-31T05:26:08.791Z,18.11
2017-08-31T05:26:36.979Z,18.17
2017-08-31T05:27:04.990Z,18.14
2017-08-31T05:27:33.108Z,18.19
2017-08-31T05:28:01.313Z,18.14
2017-08-31T05:28:29.451Z,18.14
2017-08-31T05:28:57.601Z,18.16
2017-08-31T05:29:25.788Z,18.13
2017-08-31T05:29:53.786Z,18.11
2017-08-31T05:30:21.789Z,18.1
2017-08-31T05:30:49.973Z,18.1
2017-08-31T05:31:17.969Z,18.08
2017-08-31T05:31:46.168Z,18.05
2017-08-31T05:32:14.299Z,18.08
2017-08-31T05:32:42.493Z,18.03
2017-08-31T05:33:10.734Z,18.05
2017-08-31T05:33:38.932Z,17.95
2017-08-31T05:34:07.152Z,17.95
2017-08-31T05:34:35.386Z,17.96
2017-08-31T05:35:03.513Z,17.88
2017-08-31T05:35:31.639Z,17.83
2017-08-31T05:35:59.896Z,17.86
2017-08-31T05:36:28.106Z,17.84
2017-08-31T05:36:56.336Z,17.92
2017-08-31T05:37:24.502Z,17.86
2017-08-31T05:37:52.620Z,17.88
2017-08-31T05:38:20.829Z,17.86
2017-08-31T05:38:49.068Z,17.83
2017-08-31T05:39:17.173Z,17.84
2017-08-31T05:39:45.296Z,17.84
2017-08-31T05:40:13.365Z,17.86
2017-08-31T05:40:41.382Z,17.73
2017-08-31T05:41:09.591Z,17.8
2017-08-31T05:41:37.763Z,17.79
2017-08-31T05:42:05.948Z,17.8
2017-08-31T05:42:34.026Z,17.71
2017-08-31T05:43:02.093Z,17.8
2017-08-31T05:43:30.385Z,17.66
2017-08-31T05:43:58.492Z,17.69
2017-08-31T05:44:26.724Z,17.76
2017-08-31T05:44:54.886Z,17.74
2017-08-31T05:45:23.168Z,17.66
2017-08-31T05:45:51.445Z,17.63
2017-08-31T05:46:19.703Z,17.63
2017-08-31T05:46:47.908Z,17.63
2017-08-31T05:47:16.068Z,17.58
2017-08-31T05:47:44.209Z,17.68
2017-08-31T05:48:12.535Z,17.66
2017-08-31T05:48:40.633Z,17.63
2017-08-31T05:49:08.834Z,17.74
2017-08-31T05:49:37.039Z,17.71
2017-08-31T05:50:05.261Z,17.65
2017-08-31T05:50:33.340Z,17.66
2017-08-31T05:51:01.347Z,17.65
2017-08-31T05:51:29.291Z,17.66
2017-08-31T05:51:57.407Z,17.66
2017-08-31T05:52:25.699Z,17.66
2017-08-31T05:52:53.950Z,17.71
2017-08-31T05:53:22.195Z,17.6
2017-08-31T05:53:50.735Z,17.77
2017-08-31T05:54:18.810Z,17.74
2017-08-31T05:54:47.032Z,17.68
2017-08-31T05:55:15.244Z,17.62
2017-08-31T05:55:43.344Z,17.69
2017-08-31T05:56:11.545Z,17.62
2017-08-31T05:56:39.647Z,17.63
2017-08-31T05:57:07.849Z,17.65
2017-08-31T05:57:35.994Z,17.62
2017-08-31T05:58:04.105Z,17.65
2017-08-31T05:58:32.340Z,17.62
2017-08-31T05:59:00.570Z,17.65
2017-08-31T05:59:28.691Z,17.54
2017-08-31T05:59:56.692Z,17.49
2017-08-31T06:00:24.854Z,17.52
2017-08-31T06:00:53.129Z,17.52
2017-08-31T06:01:21.288Z,17.47
2017-08-31T06:01:49.601Z,17.5
2017-08-31T06:02:17.665Z,17.55
2017-08-31T06:02:45.764Z,17.6
2017-08-31T06:03:13.896Z,17.54
2017-08-31T06:03:42.087Z,17.5
2017-08-31T06:04:10.153Z,17.54